Time;durP1;ratioP1;P1;durP2;ratioP2;P2;SDS_P1;SDS_P2;PMS_P1;PMS_P2;Temp;Humidity;BMP_temperature;BMP_pressure;BME280_temperature;BME280_humidity;BME280_pressure;Samples;Min_cycle;Max_cycle;Signal;HPM_P1;HPM_P2
2023/05/18 00:01:11;;;;;;;6.70;3.50;;;11.80;50.50;;;;;;2254283;56;21001;-67
2023/05/18 00:03:37;;;;;;;5.15;2.80;;;11.80;50.50;;;;;;2253396;56;20976;-68
2023/05/18 00:06:06;;;;;;;4.47;1.90;;;11.70;50.50;;;;;;2483903;55;20952;-70
2023/05/18 00:08:33;;;;;;;3.30;1.50;;;11.50;50.40;;;;;;2256258;56;22077;-67
2023/05/18 00:11:03;;;;;;;4.43;1.60;;;11.60;50.50;;;;;;2255833;56;20989;-68
2023/05/18 00:13:30;;;;;;;3.47;1.62;;;11.60;50.50;;;;;;2483675;55;21000;-70
2023/05/18 00:15:56;;;;;;;3.62;1.50;;;11.50;50.40;;;;;;2487154;55;21704;-68
2023/05/18 00:18:22;;;;;;;2.85;1.33;;;11.50;50.50;;;;;;2488993;55;21489;-71
2023/05/18 00:20:50;;;;;;;2.55;1.33;;;11.50;50.60;;;;;;2257254;56;21611;-68
2023/05/18 00:23:16;;;;;;;3.25;1.40;;;11.40;50.60;;;;;;2488006;55;21333;-69
2023/05/18 00:25:42;;;;;;;3.55;1.42;;;11.40;50.70;;;;;;2492082;55;20965;-68
2023/05/18 00:28:11;;;;;;;3.10;1.40;;;11.30;50.60;;;;;;2262821;56;21007;-67
2023/05/18 00:30:38;;;;;;;2.55;1.10;;;11.30;50.60;;;;;;2491828;55;21779;-71
2023/05/18 00:33:04;;;;;;;3.53;1.10;;;11.30;50.70;;;;;;2491853;55;20983;-68
2023/05/18 00:35:30;;;;;;;3.62;1.12;;;11.20;50.60;;;;;;2260785;56;21596;-68
2023/05/18 00:37:56;;;;;;;2.17;0.90;;;11.20;50.70;;;;;;2261100;56;20964;-67
2023/05/18 00:40:23;;;;;;;2.17;1.05;;;11.20;50.70;;;;;;2489423;55;21776;-71
2023/05/18 00:42:50;;;;;;;2.50;1.00;;;11.10;50.70;;;;;;2484543;55;21065;-69
2023/05/18 00:45:17;;;;;;;1.87;0.88;;;11.10;50.80;;;;;;2259852;56;20956;-68
2023/05/18 00:47:46;;;;;;;3.08;1.23;;;11.00;50.80;;;;;;2255843;56;20951;-69
2023/05/18 00:50:13;;;;;;;2.60;1.08;;;11.00;50.90;;;;;;2256126;56;20972;-69
2023/05/18 00:52:39;;;;;;;3.78;1.50;;;11.00;50.90;;;;;;2255419;56;20957;-69
2023/05/18 00:55:06;;;;;;;3.60;1.27;;;10.90;50.90;;;;;;2253165;56;20956;-67
2023/05/18 00:57:32;;;;;;;2.78;1.10;;;10.90;51.00;;;;;;2479634;55;20952;-70
2023/05/18 01:00:00;;;;;;;3.25;1.30;;;10.90;51.10;;;;;;2479544;55;21044;-71
2023/05/18 01:02:29;;;;;;;4.22;1.50;;;10.90;51.20;;;;;;2478107;55;20948;-69
2023/05/18 01:04:55;;;;;;;3.30;1.30;;;10.80;51.20;;;;;;2482261;55;21568;-66
2023/05/18 01:07:25;;;;;;;3.50;1.50;;;10.80;51.20;;;;;;2486513;55;21437;-67
2023/05/18 01:09:54;;;;;;;4.18;1.50;;;10.80;51.30;;;;;;2486226;55;21477;-68
2023/05/18 01:12:26;;;;;;;4.10;1.45;;;10.80;51.40;;;;;;2484250;55;20949;-68
2023/05/18 01:15:00;;;;;;;3.97;1.20;;;10.80;51.60;;;;;;2257522;56;20999;-70
2023/05/18 01:20:56;;;;;;;3.30;1.30;;;10.70;51.60;;;;;;2490932;55;20984;-68
2023/05/18 01:23:44;;;;;;;2.97;1.10;;;10.70;51.70;;;;;;2262497;56;21070;-71
2023/05/18 01:26:44;;;;;;;3.37;1.10;;;10.70;51.40;;;;;;2262908;56;20984;-67
2023/05/18 01:29:13;;;;;;;4.57;1.20;;;10.70;51.60;;;;;;2258744;56;21004;-66
2023/05/18 01:31:39;;;;;;;3.40;1.30;;;10.70;51.50;;;;;;2487580;55;21462;-71
2023/05/18 01:34:05;;;;;;;4.50;1.37;;;10.70;51.50;;;;;;2484930;55;21462;-68
2023/05/18 01:36:32;;;;;;;2.95;1.17;;;10.60;51.50;;;;;;2254579;56;22112;-69
2023/05/18 01:39:00;;;;;;;3.42;1.27;;;10.60;51.50;;;;;;2479103;55;21044;-66
2023/05/18 01:41:27;;;;;;;3.28;1.50;;;10.60;51.50;;;;;;2253969;56;20984;-67
2023/05/18 01:44:47;;;;;;;3.67;1.60;;;10.50;51.50;;;;;;2255566;56;20960;-67
2023/05/18 01:47:14;;;;;;;3.35;1.48;;;10.50;51.80;;;;;;2253865;56;20996;-68
2023/05/18 01:50:06;;;;;;;2.47;1.17;;;10.50;51.70;;;;;;2256678;56;20980;-70
2023/05/18 01:52:47;;;;;;;3.30;1.27;;;10.50;51.70;;;;;;2256848;56;20996;-69
2023/05/18 01:55:14;;;;;;;2.80;1.20;;;10.50;51.70;;;;;;2256404;56;20964;-68
2023/05/18 01:57:44;;;;;;;2.42;1.00;;;10.40;51.60;;;;;;2257214;56;20933;-68
2023/05/18 02:00:15;;;;;;;2.53;1.20;;;10.40;51.60;;;;;;2484496;55;20939;-67
2023/05/18 02:02:41;;;;;;;3.20;1.10;;;10.40;51.60;;;;;;2481753;55;20968;-67
2023/05/18 02:05:11;;;;;;;3.85;1.15;;;10.40;51.70;;;;;;2482125;55;20980;-71
2023/05/18 02:07:38;;;;;;;3.28;1.27;;;10.30;51.70;;;;;;2485674;55;20948;-68
2023/05/18 02:10:08;;;;;;;4.50;1.45;;;10.30;51.90;;;;;;2255656;56;20949;-69
2023/05/18 02:12:34;;;;;;;4.45;1.55;;;10.30;51.90;;;;;;2480930;55;20962;-69
2023/05/18 02:15:04;;;;;;;3.20;1.20;;;10.30;52.00;;;;;;2480997;55;21378;-69
2023/05/18 02:17:37;;;;;;;3.72;1.45;;;10.30;52.00;;;;;;2482208;55;20929;-70
2023/05/18 02:20:07;;;;;;;3.37;1.30;;;10.30;52.10;;;;;;2477373;55;21043;-69
2023/05/18 02:22:34;;;;;;;3.08;1.50;;;10.20;51.90;;;;;;2480604;55;20989;-67
2023/05/18 02:25:02;;;;;;;3.12;1.23;;;10.20;51.90;;;;;;2253450;56;21382;-67
2023/05/18 02:27:28;;;;;;;3.58;1.50;;;10.20;51.90;;;;;;2254071;56;20960;-67
2023/05/18 02:29:55;;;;;;;2.97;1.40;;;10.20;52.00;;;;;;2251981;56;21023;-69
2023/05/18 02:32:22;;;;;;;2.80;1.10;;;10.20;52.10;;;;;;2251842;56;20968;-69
2023/05/18 02:34:51;;;;;;;2.75;1.02;;;10.10;52.00;;;;;;2483237;55;21001;-67
2023/05/18 02:37:18;;;;;;;3.80;1.50;;;10.10;52.00;;;;;;2254058;56;21281;-67
2023/05/18 02:39:45;;;;;;;3.47;1.30;;;10.10;52.00;;;;;;2254691;56;21028;-70
2023/05/18 02:42:12;;;;;;;3.58;1.55;;;10.10;52.10;;;;;;2255970;56;20944;-70
2023/05/18 02:44:38;;;;;;;2.75;1.15;;;10.10;52.20;;;;;;2255050;56;20932;-68
2023/05/18 02:47:05;;;;;;;3.08;1.27;;;10.10;52.20;;;;;;2485475;55;21952;-69
2023/05/18 02:49:32;;;;;;;4.37;1.60;;;10.10;52.20;;;;;;2486255;55;21031;-69
2023/05/18 02:51:58;;;;;;;2.40;1.02;;;10.10;52.20;;;;;;2257257;56;21056;-71
2023/05/18 02:54:25;;;;;;;3.33;1.45;;;10.00;52.20;;;;;;2480434;55;21578;-69
2023/05/18 02:56:55;;;;;;;3.05;1.30;;;10.00;52.20;;;;;;2257564;56;21509;-70
2023/05/18 02:59:21;;;;;;;4.03;1.50;;;10.00;52.10;;;;;;2483843;55;20968;-67
2023/05/18 03:01:49;;;;;;;4.82;1.67;;;10.00;52.20;;;;;;2254508;56;21124;-68
2023/05/18 03:04:15;;;;;;;4.37;1.83;;;10.00;52.30;;;;;;2255364;56;21682;-68
2023/05/18 03:06:42;;;;;;;5.03;1.80;;;9.90;53.20;;;;;;2254004;56;21523;-68
2023/05/18 03:09:09;;;;;;;3.42;1.35;;;9.90;53.20;;;;;;2243236;56;21101;-70
2023/05/18 03:11:36;;;;;;;2.90;1.40;;;9.90;53.20;;;;;;2480467;55;20996;-67
2023/05/18 03:14:02;;;;;;;4.97;1.90;;;9.90;53.20;;;;;;2483351;55;21508;-70
2023/05/18 03:16:29;;;;;;;3.53;1.40;;;9.90;53.30;;;;;;2475759;55;20933;-70
2023/05/18 03:18:57;;;;;;;3.85;1.67;;;9.90;53.50;;;;;;2251382;56;21538;-66
2023/05/18 03:21:24;;;;;;;3.92;2.00;;;9.90;53.50;;;;;;2253204;56;21849;-69
2023/05/18 03:23:52;;;;;;;3.85;1.55;;;9.80;53.50;;;;;;2481333;55;21416;-68
2023/05/18 03:26:29;;;;;;;4.82;1.87;;;9.80;53.50;;;;;;2481600;55;21146;-67
2023/05/18 03:28:59;;;;;;;3.53;1.80;;;9.80;53.50;;;;;;2253882;56;20983;-68
2023/05/18 03:31:26;;;;;;;4.15;1.48;;;9.80;53.50;;;;;;2255319;56;21044;-67
2023/05/18 03:33:52;;;;;;;3.30;1.50;;;9.80;53.60;;;;;;2483893;55;20964;-68
2023/05/18 03:36:21;;;;;;;5.05;1.87;;;9.80;53.50;;;;;;2252369;56;20972;-70
2023/05/18 03:38:47;;;;;;;3.78;1.98;;;9.80;53.60;;;;;;2253521;56;20980;-69
2023/05/18 03:41:13;;;;;;;4.28;1.77;;;9.80;53.60;;;;;;2483324;55;20941;-69
2023/05/18 03:43:40;;;;;;;4.07;2.03;;;9.70;53.60;;;;;;2255382;56;20960;-69
2023/05/18 03:46:07;;;;;;;3.67;1.70;;;9.70;53.60;;;;;;2257888;56;20944;-69
2023/05/18 03:48:33;;;;;;;3.87;1.70;;;9.70;53.60;;;;;;2259256;56;20964;-70
2023/05/18 03:50:59;;;;;;;5.35;2.28;;;9.70;53.60;;;;;;2258575;56;21000;-68
2023/05/18 03:53:28;;;;;;;3.92;1.52;;;9.70;53.60;;;;;;2486831;55;21003;-70
2023/05/18 03:55:56;;;;;;;3.15;1.50;;;9.70;53.70;;;;;;2257108;56;21021;-69
2023/05/18 03:58:26;;;;;;;3.05;1.37;;;9.60;53.60;;;;;;2487103;55;20984;-70
2023/05/18 04:00:55;;;;;;;3.90;1.65;;;9.60;53.60;;;;;;2258990;56;20996;-71
2023/05/18 04:03:25;;;;;;;3.60;1.45;;;9.60;53.60;;;;;;2258462;56;20936;-67
2023/05/18 04:05:52;;;;;;;5.20;2.03;;;9.60;53.70;;;;;;2258646;56;21510;-67
2023/05/18 04:08:19;;;;;;;3.47;1.65;;;9.60;53.70;;;;;;2258757;56;21434;-72
2023/05/18 04:10:46;;;;;;;3.22;1.50;;;9.60;53.80;;;;;;2257625;56;21800;-67
2023/05/18 04:13:12;;;;;;;3.17;1.37;;;9.60;53.80;;;;;;2257251;56;21032;-71
2023/05/18 04:15:38;;;;;;;3.58;1.70;;;9.50;53.80;;;;;;2258255;56;20952;-68
2023/05/18 04:18:05;;;;;;;4.35;1.70;;;9.50;53.80;;;;;;2486743;55;20996;-71
2023/05/18 04:20:31;;;;;;;4.85;2.08;;;9.50;54.00;;;;;;2258291;56;21021;-66
2023/05/18 04:22:58;;;;;;;4.30;1.77;;;9.50;53.90;;;;;;2257862;56;21047;-68
2023/05/18 04:25:27;;;;;;;3.10;1.48;;;9.50;53.90;;;;;;2258988;56;20966;-69
2023/05/18 04:27:54;;;;;;;3.97;1.58;;;9.50;54.00;;;;;;2257009;56;21008;-71
2023/05/18 04:30:22;;;;;;;3.30;1.33;;;9.50;53.90;;;;;;2486512;55;20984;-67
2023/05/18 04:32:48;;;;;;;3.97;1.58;;;9.50;53.90;;;;;;2257496;56;20932;-71
2023/05/18 04:35:15;;;;;;;3.40;1.30;;;9.50;53.90;;;;;;2487852;55;21019;-69
2023/05/18 04:37:41;;;;;;;3.42;1.50;;;9.50;53.90;;;;;;2486965;55;21788;-67
2023/05/18 04:40:11;;;;;;;5.12;1.70;;;9.50;54.00;;;;;;2257763;56;21426;-67
2023/05/18 04:42:44;;;;;;;3.97;1.60;;;9.50;54.00;;;;;;2481468;55;21092;-68
2023/05/18 04:45:14;;;;;;;3.42;1.40;;;9.40;54.00;;;;;;2256524;56;20936;-69
2023/05/18 04:47:46;;;;;;;3.17;1.52;;;9.40;54.00;;;;;;2257399;56;21029;-69
2023/05/18 04:50:16;;;;;;;4.37;1.83;;;9.40;54.00;;;;;;2256756;56;21796;-69
2023/05/18 04:52:47;;;;;;;4.03;1.90;;;9.40;54.20;;;;;;2256248;56;21897;-66
2023/05/18 04:55:21;;;;;;;3.22;1.50;;;9.40;54.30;;;;;;2485170;55;20960;-68
2023/05/18 04:57:55;;;;;;;3.58;1.77;;;9.40;54.30;;;;;;2487035;55;20960;-68
2023/05/18 05:00:23;;;;;;;3.47;1.60;;;9.40;54.40;;;;;;2258881;56;20945;-69
2023/05/18 05:02:50;;;;;;;3.00;1.42;;;9.40;54.40;;;;;;2486297;55;20957;-69
2023/05/18 05:05:16;;;;;;;5.47;1.87;;;9.40;54.50;;;;;;2258785;56;21789;-71
2023/05/18 05:07:42;;;;;;;3.85;1.65;;;9.40;54.50;;;;;;2260890;56;21056;-67
2023/05/18 05:10:10;;;;;;;2.72;1.37;;;9.40;54.50;;;;;;2261478;56;20992;-68
2023/05/18 05:12:37;;;;;;;4.03;1.70;;;9.50;54.60;;;;;;2492046;55;21839;-69
2023/05/18 05:15:07;;;;;;;3.97;1.80;;;9.50;54.70;;;;;;2264212;56;21756;-66
2023/05/18 05:17:35;;;;;;;3.55;1.65;;;9.50;54.80;;;;;;2263042;56;20994;-72
2023/05/18 05:20:03;;;;;;;3.37;1.65;;;9.50;54.80;;;;;;2259470;56;20976;-69
2023/05/18 05:22:29;;;;;;;3.28;1.60;;;9.50;54.90;;;;;;2262618;56;20972;-68
2023/05/18 05:24:56;;;;;;;3.17;1.48;;;9.50;54.90;;;;;;2262599;56;21847;-70
2023/05/18 05:27:24;;;;;;;4.72;1.98;;;9.60;55.00;;;;;;2259362;56;21009;-69
2023/05/18 05:29:52;;;;;;;4.53;1.83;;;9.60;55.10;;;;;;2259974;56;20991;-68
2023/05/18 05:32:18;;;;;;;5.40;2.30;;;9.60;55.10;;;;;;2259517;56;20944;-69
2023/05/18 05:34:46;;;;;;;5.12;2.37;;;9.60;55.10;;;;;;2258622;56;21075;-69
2023/05/18 05:37:13;;;;;;;4.12;2.00;;;9.70;55.20;;;;;;2481972;55;20990;-70
2023/05/18 05:39:39;;;;;;;6.43;2.33;;;9.70;55.20;;;;;;2256558;56;21001;-72
2023/05/18 05:42:07;;;;;;;5.03;2.22;;;9.70;55.30;;;;;;2484294;55;21072;-68
2023/05/18 05:44:33;;;;;;;4.47;1.70;;;9.80;55.40;;;;;;2256633;56;20924;-70
2023/05/18 05:47:00;;;;;;;4.82;2.10;;;9.80;55.40;;;;;;2480163;55;21872;-71
2023/05/18 05:49:26;;;;;;;4.45;2.30;;;9.90;55.50;;;;;;2481851;55;21025;-69
2023/05/18 05:51:55;;;;;;;5.78;2.30;;;9.90;55.60;;;;;;2484569;55;20940;-67
2023/05/18 05:54:21;;;;;;;4.60;2.22;;;9.90;55.60;;;;;;2253748;56;21371;-67
2023/05/18 05:56:48;;;;;;;4.20;2.37;;;10.00;54.80;;;;;;2255258;56;21036;-70
2023/05/18 05:59:15;;;;;;;4.78;1.83;;;10.10;54.90;;;;;;2256580;56;21001;-70
2023/05/18 06:01:41;;;;;;;5.15;2.03;;;10.10;54.90;;;;;;2484673;55;21034;-68
2023/05/18 06:04:11;;;;;;;4.00;2.10;;;10.10;54.90;;;;;;2480687;55;20966;-70
2023/05/18 06:06:43;;;;;;;4.20;1.92;;;10.20;55.00;;;;;;2253519;56;21095;-67
2023/05/18 06:09:09;;;;;;;4.07;2.40;;;10.20;55.10;;;;;;2480669;55;21054;-67
2023/05/18 06:11:37;;;;;;;4.90;2.25;;;10.30;55.00;;;;;;2255541;56;20972;-68
2023/05/18 06:14:03;;;;;;;4.12;2.22;;;10.30;55.00;;;;;;2255811;56;21826;-67
2023/05/18 06:16:32;;;;;;;5.68;2.50;;;10.40;55.10;;;;;;2255616;56;20996;-68
2023/05/18 06:18:59;;;;;;;4.80;2.28;;;10.40;55.10;;;;;;2253703;56;20968;-68
2023/05/18 06:21:26;;;;;;;4.37;2.35;;;10.50;55.20;;;;;;2479823;55;21055;-68
2023/05/18 06:23:54;;;;;;;4.80;2.15;;;10.60;55.30;;;;;;2251923;56;21086;-73
2023/05/18 06:26:22;;;;;;;5.82;2.35;;;10.60;55.30;;;;;;2468931;55;20996;-69
2023/05/18 06:28:49;;;;;;;6.65;2.03;;;10.70;55.40;;;;;;2464206;55;21814;-68
2023/05/18 06:31:19;;;;;;;5.97;2.40;;;10.70;55.40;;;;;;2245586;56;21478;-69
2023/05/18 06:33:48;;;;;;;5.93;2.12;;;10.80;56.20;;;;;;2472276;55;21611;-68
2023/05/18 06:36:20;;;;;;;4.75;2.20;;;10.90;55.70;;;;;;2239088;56;22190;-69
2023/05/18 06:38:49;;;;;;;4.43;2.13;;;11.00;55.70;;;;;;2459236;55;21744;-69
2023/05/18 06:41:17;;;;;;;6.28;2.45;;;11.00;55.70;;;;;;2236143;56;21039;-69
2023/05/18 06:43:44;;;;;;;4.43;2.10;;;11.10;55.80;;;;;;2239430;56;20955;-69
2023/05/18 06:46:18;;;;;;;5.25;2.00;;;11.20;55.90;;;;;;2464337;55;21161;-71
2023/05/18 06:48:46;;;;;;;5.87;2.25;;;11.30;56.20;;;;;;2467839;55;21017;-68
2023/05/18 06:51:15;;;;;;;4.37;2.20;;;11.30;56.10;;;;;;2475055;55;21120;-71
2023/05/18 06:53:42;;;;;;;4.95;2.03;;;11.40;56.30;;;;;;2248934;56;20952;-69
2023/05/18 06:56:12;;;;;;;4.40;2.15;;;11.50;56.30;;;;;;2253312;56;20936;-73
2023/05/18 06:58:40;;;;;;;4.10;2.03;;;11.60;56.40;;;;;;2477775;55;20942;-70
2023/05/18 07:01:09;;;;;;;4.15;1.90;;;11.70;56.40;;;;;;2234890;56;21019;-70
2023/05/18 07:03:36;;;;;;;5.35;2.12;;;11.80;56.40;;;;;;2467649;55;21142;-69
2023/05/18 07:06:05;;;;;;;6.28;2.00;;;11.90;56.50;;;;;;2469684;55;21005;-70
2023/05/18 07:08:37;;;;;;;5.00;1.90;;;12.00;56.60;;;;;;2249384;56;20952;-72
2023/05/18 07:11:04;;;;;;;5.53;2.05;;;12.20;56.80;;;;;;2474479;55;21117;-70
2023/05/18 07:13:30;;;;;;;5.90;2.20;;;12.30;56.90;;;;;;2253127;56;20960;-69
2023/05/18 07:15:57;;;;;;;5.03;2.50;;;12.40;57.10;;;;;;2478356;55;21047;-69
2023/05/18 07:18:23;;;;;;;3.90;1.95;;;12.50;57.30;;;;;;2250152;56;20950;-70
2023/05/18 07:20:50;;;;;;;5.95;1.95;;;12.70;57.60;;;;;;2478562;55;20952;-68
2023/05/18 07:23:16;;;;;;;5.53;2.05;;;12.80;57.60;;;;;;2477541;55;21028;-69
2023/05/18 07:25:43;;;;;;;4.43;1.98;;;13.00;57.70;;;;;;2253682;56;21024;-70
2023/05/18 07:28:09;;;;;;;5.87;2.35;;;13.10;57.60;;;;;;2253968;56;20956;-71
2023/05/18 07:30:36;;;;;;;4.68;2.20;;;13.30;57.50;;;;;;2476882;55;21467;-71
2023/05/18 07:33:06;;;;;;;5.12;2.00;;;13.40;57.50;;;;;;2482434;55;21741;-71
2023/05/18 07:35:38;;;;;;;3.55;1.60;;;13.60;57.60;;;;;;2477002;55;20932;-71
2023/05/18 07:38:04;;;;;;;6.95;2.40;;;13.70;57.50;;;;;;2255107;56;20960;-71
2023/05/18 07:40:30;;;;;;;3.78;1.92;;;13.80;57.40;;;;;;2254101;56;20980;-72
2023/05/18 07:42:57;;;;;;;4.85;2.08;;;14.00;57.20;;;;;;2481690;55;20948;-72
2023/05/18 07:45:23;;;;;;;5.30;2.37;;;14.10;57.00;;;;;;2480689;55;20989;-70
2023/05/18 07:47:51;;;;;;;4.65;1.58;;;14.20;56.80;;;;;;2476047;55;20964;-72
2023/05/18 07:50:18;;;;;;;3.80;1.90;;;14.30;56.70;;;;;;2249031;56;20960;-72
2023/05/18 07:52:44;;;;;;;7.72;2.03;;;14.50;56.70;;;;;;2245845;56;21022;-74
2023/05/18 07:55:10;;;;;;;4.32;1.80;;;14.60;56.60;;;;;;2237909;56;21425;-70
2023/05/18 07:57:41;;;;;;;4.60;1.95;;;14.70;56.60;;;;;;2241429;56;21705;-69
2023/05/18 08:00:09;;;;;;;4.80;2.15;;;14.80;56.80;;;;;;2238198;56;21040;-73
2023/05/18 08:02:38;;;;;;;3.87;1.75;;;14.90;56.70;;;;;;2457858;55;21018;-72
2023/05/18 08:05:09;;;;;;;4.57;2.00;;;15.00;56.50;;;;;;2463887;55;21675;-71
2023/05/18 08:07:37;;;;;;;4.55;1.75;;;15.20;56.50;;;;;;2239384;56;21825;-72
2023/05/18 08:10:04;;;;;;;4.80;2.00;;;15.30;56.30;;;;;;2464903;55;21031;-69
2023/05/18 08:12:30;;;;;;;6.55;1.83;;;15.40;56.20;;;;;;2468084;55;21313;-71
2023/05/18 08:14:59;;;;;;;6.25;1.80;;;15.50;56.10;;;;;;2240740;56;21611;-71
2023/05/18 08:17:27;;;;;;;3.97;1.73;;;15.60;56.30;;;;;;2472919;55;21425;-70
2023/05/18 08:19:54;;;;;;;4.43;1.70;;;15.70;56.30;;;;;;2468695;55;20944;-72
2023/05/18 08:22:22;;;;;;;4.37;1.85;;;15.80;56.30;;;;;;2480049;55;20953;-70
2023/05/18 08:24:49;;;;;;;4.18;1.87;;;15.90;56.40;;;;;;2244453;56;21006;-71
2023/05/18 08:27:18;;;;;;;4.57;1.92;;;16.00;56.40;;;;;;2470419;55;20933;-72
2023/05/18 08:29:47;;;;;;;4.47;2.15;;;16.10;56.20;;;;;;2465380;55;21544;-71
2023/05/18 08:32:13;;;;;;;4.72;1.95;;;16.20;56.00;;;;;;2230396;56;22098;-73
2023/05/18 08:34:40;;;;;;;5.82;1.70;;;16.30;55.80;;;;;;2232367;56;20936;-70
2023/05/18 08:37:09;;;;;;;4.05;1.52;;;16.40;55.60;;;;;;2447925;55;21897;-69
2023/05/18 08:39:40;;;;;;;6.05;1.80;;;16.50;55.60;;;;;;2441712;55;21498;-69
2023/05/18 08:42:33;;;;;;;3.70;1.27;;;16.70;55.40;;;;;;2427171;55;21061;-70
2023/05/18 08:46:20;;;;;;;6.53;1.60;;;16.80;55.00;;;;;;2400477;55;22546;-70
2023/05/18 08:48:52;;;;;;;4.28;1.45;;;16.90;54.80;;;;;;2388225;55;21569;-69
2023/05/18 08:51:24;;;;;;;4.43;1.62;;;17.00;55.10;;;;;;2386781;55;22961;-69
2023/05/18 08:53:53;;;;;;;4.07;1.45;;;17.10;55.00;;;;;;2381147;55;21118;-71
2023/05/18 08:56:48;;;;;;;4.60;1.77;;;17.20;54.90;;;;;;2149558;56;22203;-71
2023/05/18 09:00:16;;;;;;;5.43;1.45;;;17.30;54.70;;;;;;2402271;55;20981;-71
2023/05/18 09:02:55;;;;;;;5.00;1.58;;;17.40;54.60;;;;;;2371757;55;21767;-70
2023/05/18 09:05:26;;;;;;;4.68;1.55;;;17.50;54.60;;;;;;2363298;55;21930;-71
2023/05/18 09:07:54;;;;;;;5.62;1.75;;;17.60;54.60;;;;;;2140693;57;21796;-71
2023/05/18 09:10:32;;;;;;;3.45;1.50;;;17.70;54.30;;;;;;2176390;56;22296;-70
2023/05/18 09:13:04;;;;;;;3.53;1.45;;;17.70;53.80;;;;;;2185818;56;21588;-70
2023/05/18 09:15:34;;;;;;;3.70;1.80;;;17.80;53.90;;;;;;2188537;56;22217;-68
2023/05/18 09:18:02;;;;;;;5.22;1.98;;;17.80;53.90;;;;;;2180962;56;21642;-69
2023/05/18 09:20:30;;;;;;;5.60;1.65;;;17.80;54.00;;;;;;2424037;55;22567;-69
2023/05/18 09:22:59;;;;;;;5.12;1.65;;;17.90;54.00;;;;;;2439754;55;20952;-74
2023/05/18 09:25:26;;;;;;;4.45;1.50;;;18.00;53.80;;;;;;2437663;55;20908;-72
2023/05/18 09:28:03;;;;;;;6.57;1.62;;;18.10;53.70;;;;;;2422964;55;20905;-70
2023/05/18 09:30:46;;;;;;;3.85;1.52;;;18.10;53.50;;;;;;2201941;56;22084;-73
2023/05/18 09:33:22;;;;;;;4.37;1.85;;;18.20;53.00;;;;;;2422958;55;21040;-74
2023/05/18 09:35:51;;;;;;;7.12;1.95;;;18.20;53.10;;;;;;2440258;55;21756;-72
2023/05/18 09:38:29;;;;;;;4.78;1.45;;;18.30;53.10;;;;;;2224415;56;20994;-72
2023/05/18 09:40:56;;;;;;;5.70;1.75;;;18.30;53.00;;;;;;2223607;56;21002;-74
2023/05/18 09:43:24;;;;;;;4.43;1.48;;;18.40;53.00;;;;;;2193852;56;20943;-72
2023/05/18 09:45:51;;;;;;;5.37;1.80;;;18.40;53.00;;;;;;2225103;56;21007;-73
2023/05/18 09:48:18;;;;;;;5.37;1.80;;;18.50;53.00;;;;;;2243759;56;21117;-76
2023/05/18 09:50:49;;;;;;;5.95;1.92;;;18.50;52.90;;;;;;2233314;56;21534;-71
2023/05/18 09:53:15;;;;;;;5.12;1.55;;;18.60;52.80;;;;;;2235970;55;21039;-70
2023/05/18 09:55:46;;;;;;;4.68;1.60;;;18.60;52.50;;;;;;2256502;56;20928;-73
2023/05/18 09:58:13;;;;;;;5.55;1.95;;;18.60;52.10;;;;;;2261242;55;20945;-71
2023/05/18 10:00:41;;;;;;;4.68;1.52;;;18.60;52.30;;;;;;2257431;56;20955;-73
2023/05/18 10:03:20;;;;;;;4.15;1.42;;;18.60;52.40;;;;;;2261037;56;21468;-73
2023/05/18 10:05:47;;;;;;;3.97;1.52;;;18.70;52.60;;;;;;2262490;55;20909;-73
2023/05/18 10:08:14;;;;;;;4.93;1.90;;;18.80;52.80;;;;;;2261596;56;21438;-73
2023/05/18 10:10:45;;;;;;;6.10;1.67;;;18.80;52.50;;;;;;2490435;55;20925;-72
2023/05/18 10:13:13;;;;;;;4.05;1.77;;;18.80;52.30;;;;;;2259150;56;20949;-74
2023/05/18 10:15:47;;;;;;;5.75;1.85;;;18.90;52.30;;;;;;2490383;55;20981;-71
2023/05/18 10:18:19;;;;;;;6.90;1.80;;;18.90;51.90;;;;;;2490800;55;21381;-72
2023/05/18 10:20:46;;;;;;;4.47;2.10;;;18.90;51.80;;;;;;2263695;56;21038;-73
2023/05/18 10:23:14;;;;;;;5.15;1.65;;;19.00;51.80;;;;;;2260167;56;21662;-74
2023/05/18 10:25:41;;;;;;;4.62;1.90;;;19.00;51.60;;;;;;2262570;56;20984;-73
2023/05/18 10:28:10;;;;;;;5.20;1.60;;;19.10;51.50;;;;;;2484067;55;21510;-74
2023/05/18 10:30:38;;;;;;;4.53;1.55;;;19.10;51.60;;;;;;2486845;55;21014;-70
2023/05/18 10:33:05;;;;;;;4.53;1.77;;;19.10;51.70;;;;;;2490157;55;20924;-73
2023/05/18 10:35:36;;;;;;;5.32;1.73;;;19.20;51.70;;;;;;2491681;55;21919;-71
2023/05/18 10:38:05;;;;;;;5.87;1.70;;;19.20;51.60;;;;;;2491396;55;21116;-70
2023/05/18 10:40:32;;;;;;;5.25;1.87;;;19.20;51.40;;;;;;2490323;55;20978;-71
2023/05/18 10:43:02;;;;;;;4.53;1.67;;;19.30;51.40;;;;;;2261956;56;21061;-72
2023/05/18 10:45:32;;;;;;;5.87;2.17;;;19.40;51.40;;;;;;2488280;55;20925;-74
2023/05/18 10:47:59;;;;;;;6.57;1.90;;;19.40;51.20;;;;;;2490247;55;21070;-73
2023/05/18 10:50:27;;;;;;;5.37;1.83;;;19.40;51.20;;;;;;2472823;55;20975;-69
2023/05/18 10:52:53;;;;;;;4.25;1.80;;;19.40;51.00;;;;;;2476776;55;21051;-70
2023/05/18 10:55:20;;;;;;;5.75;1.95;;;19.40;50.90;;;;;;2486720;55;20979;-70
2023/05/18 10:57:51;;;;;;;4.55;1.73;;;19.40;50.80;;;;;;2487486;55;21031;-71
2023/05/18 11:00:21;;;;;;;4.45;1.80;;;19.50;50.90;;;;;;2486337;55;20992;-72
2023/05/18 11:02:49;;;;;;;4.30;1.85;;;19.50;51.00;;;;;;2261814;56;20919;-74
2023/05/18 11:05:24;;;;;;;5.90;1.62;;;19.60;51.00;;;;;;2261936;56;21028;-73
2023/05/18 11:07:53;;;;;;;3.37;1.65;;;19.60;50.70;;;;;;2262511;56;20980;-71
2023/05/18 11:10:19;;;;;;;4.05;1.52;;;19.70;50.90;;;;;;2262452;56;21465;-72
2023/05/18 11:12:46;;;;;;;5.30;1.55;;;19.70;50.90;;;;;;2490924;55;20933;-72
2023/05/18 11:15:12;;;;;;;4.10;1.70;;;19.80;50.90;;;;;;2491259;55;21882;-74
2023/05/18 11:17:38;;;;;;;4.07;1.60;;;19.80;50.70;;;;;;2491639;55;20920;-71
2023/05/18 11:20:15;;;;;;;4.68;1.48;;;19.90;50.80;;;;;;2491592;55;21083;-70
2023/05/18 11:24:14;;;;;;;6.32;1.92;;;19.90;50.50;;;;;;2491845;55;21755;-72
2023/05/18 11:26:44;;;;;;;3.65;1.90;;;20.00;50.40;;;;;;2491713;55;20952;-71
2023/05/18 11:29:23;;;;;;;6.05;2.25;;;20.10;50.70;;;;;;2490049;55;21038;-71
2023/05/18 11:31:56;;;;;;;4.47;1.62;;;20.20;50.10;;;;;;2488239;55;20964;-72
2023/05/18 11:34:46;;;;;;;5.22;1.73;;;20.20;50.20;;;;;;2491567;55;21011;-71
2023/05/18 11:37:14;;;;;;;5.68;2.10;;;20.30;49.90;;;;;;2491136;55;20924;-70
2023/05/18 11:39:40;;;;;;;5.20;1.85;;;20.30;50.40;;;;;;2491926;55;20912;-70
2023/05/18 11:42:17;;;;;;;4.30;1.77;;;20.40;50.30;;;;;;2491832;55;21026;-69
2023/05/18 11:44:54;;;;;;;4.90;2.15;;;20.50;50.00;;;;;;2263080;56;20920;-67
2023/05/18 11:47:22;;;;;;;4.18;1.90;;;20.50;49.50;;;;;;2491577;55;20956;-70
2023/05/18 11:49:51;;;;;;;4.57;1.80;;;20.50;49.50;;;;;;2262868;56;21011;-69
2023/05/18 11:52:21;;;;;;;6.28;2.08;;;20.50;49.30;;;;;;2491403;55;20976;-69
2023/05/18 11:54:55;;;;;;;3.37;1.60;;;20.50;49.20;;;;;;2485308;55;21037;-67
2023/05/18 11:57:26;;;;;;;4.45;1.75;;;20.60;48.90;;;;;;2490892;55;20940;-70
2023/05/18 11:59:56;;;;;;;5.05;1.75;;;20.60;49.10;;;;;;2488129;55;21093;-71
2023/05/18 12:02:26;;;;;;;6.57;2.22;;;20.60;49.30;;;;;;2467345;55;20982;-68
2023/05/18 12:04:55;;;;;;;4.00;1.70;;;20.60;49.30;;;;;;2261253;56;21064;-68
2023/05/18 12:07:28;;;;;;;4.93;1.77;;;20.70;49.50;;;;;;2490457;55;20992;-70
2023/05/18 12:10:00;;;;;;;4.32;2.05;;;20.80;49.60;;;;;;2259311;56;21052;-69
2023/05/18 12:12:27;;;;;;;5.10;1.58;;;20.80;49.30;;;;;;2491509;55;20933;-73
2023/05/18 12:14:57;;;;;;;3.33;1.40;;;20.90;49.50;;;;;;2491423;55;21062;-69
2023/05/18 12:17:46;;;;;;;4.30;1.50;;;21.00;49.40;;;;;;2262917;56;21790;-66
2023/05/18 12:20:16;;;;;;;6.97;1.33;;;21.00;48.50;;;;;;2263037;56;20949;-70
2023/05/18 12:22:49;;;;;;;5.45;1.87;;;21.10;48.90;;;;;;2264584;56;20990;-69
2023/05/18 12:25:16;;;;;;;;;;;21.10;48.60;;;;;;2490316;55;21022;-69
2023/05/18 12:27:48;;;;;;;3.87;1.35;;;21.10;48.70;;;;;;2260114;56;20057;-71
2023/05/18 12:30:33;;;;;;;4.70;1.75;;;21.10;48.50;;;;;;2262370;56;20953;-70
2023/05/18 12:33:05;;;;;;;3.67;1.23;;;21.10;48.10;;;;;;2263879;56;20987;-72
2023/05/18 12:35:32;;;;;;;3.62;1.37;;;21.10;48.20;;;;;;2264165;56;20973;-70
2023/05/18 12:38:00;;;;;;;6.70;1.77;;;21.10;48.10;;;;;;2261600;56;20992;-71
2023/05/18 12:40:26;;;;;;;3.80;1.60;;;21.10;48.10;;;;;;2490079;55;20984;-70
2023/05/18 12:42:59;;;;;;;3.30;1.60;;;21.20;48.10;;;;;;2490049;55;20965;-68
2023/05/18 12:45:30;;;;;;;3.28;1.52;;;21.20;47.60;;;;;;2261554;56;21016;-70
2023/05/18 12:48:03;;;;;;;3.30;1.60;;;21.20;48.30;;;;;;2261310;56;21111;-70
2023/05/18 12:50:30;;;;;;;4.57;1.80;;;21.30;48.40;;;;;;2261038;56;21777;-68
2023/05/18 12:52:56;;;;;;;3.80;1.40;;;21.30;48.40;;;;;;2262904;56;21481;-70
2023/05/18 12:55:25;;;;;;;2.72;1.45;;;21.40;48.30;;;;;;2486268;55;20960;-70
2023/05/18 12:58:13;;;;;;;3.75;1.50;;;21.50;48.30;;;;;;2261169;56;20952;-71
2023/05/18 13:00:42;;;;;;;3.75;1.67;;;21.60;48.30;;;;;;2491138;55;20920;-69
2023/05/18 13:03:18;;;;;;;4.20;1.50;;;21.70;48.40;;;;;;2483604;55;21007;-68
2023/05/18 13:06:00;;;;;;;3.45;1.20;;;21.80;48.00;;;;;;2483829;55;20974;-69
2023/05/18 13:08:27;;;;;;;5.20;1.37;;;21.90;48.10;;;;;;2260777;56;21048;-70